Strona główna
METAR-TAF:

METAR-TAF

Lotnisko :

Chatham-Kent Municipal Airport

Chatham-Kent, Ontario, Kanada

Szerokość geograficzna: 42-18-22N, Długość geograficzna: 82-04-54W, wysokość: 197 m

Aktualna obserwacja pogody

Raport powstał 28 minut temu, godzina 09:00 UTC
Wiatr 9 kt od zachodnio-południowy zachód
Temperatura 27°C
Wilgotność 84%
Ciśnienie 1011 hPa
Widzialność: 14.5 km
Mało chmury na wysokości 4400 ft
Rozproszone chmury na wysokości 8000 ft
Rozproszone chmury na wysokości 9600 ft
Rozproszone chmury na wysokości 12000 ft

METAR: CYCK 200900Z AUTO 24009KT 9SM FEW044 SCT080 SCT096 SCT120 27/24 A2985 RMK LTNG DIST ALQDS SLP106 DENSITY ALT 2200FT

czas: 05:28 (09:28 UTC)


TAF: brakujący

Obserwacja i prognoza pogody dla ponad 4000 lotnisk (raport METAR i TAF).

Dostępne stacje oznaczono żółtymi i czerwonymi punktami na mapie.

Najedź kursorem aby zobaczyć nazwę stacji.

Kliknij aby zobaczyć obserwacje i prognozy pogody.

Aby zmienić mapę: kliknij na zielony przycisk z czarnym krzyżykiem, aby powiększyć; na zielony przycisk z myślnikiem, aby pomniejszyć; na zielone strzałki, aby przejść do map sąsiednich.


METAR-TAF: